Time;durP1;ratioP1;P1;durP2;ratioP2;P2;SDS_P1;SDS_P2;PMS_P1;PMS_P2;Temp;Humidity;BMP_temperature;BMP_pressure;BME280_temperature;BME280_humidity;BME280_pressure;Samples;Min_cycle;Max_cycle;Signal;HPM_P1;HPM_P2
2022/02/18 00:00:50;;;;;;;4.30;1.80;;;;;;;4.88;74.88;98508.26;130403;1267;107592;-79
2022/02/18 00:03:59;;;;;;;5.80;2.00;;;;;;;4.91;74.11;98513.39;130417;1268;105527;-79
2022/02/18 00:07:05;;;;;;;5.80;1.60;;;;;;;4.93;73.94;98513.59;130436;1268;108804;-78
2022/02/18 00:10:13;;;;;;;5.00;1.30;;;;;;;4.90;73.41;98528.81;130420;1268;107820;-78
2022/02/18 00:13:19;;;;;;;6.40;1.70;;;;;;;4.89;73.91;98522.46;130535;1268;107783;-77
2022/02/18 00:16:25;;;;;;;3.80;1.20;;;;;;;4.86;73.97;98534.70;130661;1268;107668;-79
2022/02/18 00:19:30;;;;;;;5.40;1.20;;;;;;;4.85;74.01;98530.98;130434;1268;108700;-80
2022/02/18 00:22:36;;;;;;;3.20;1.10;;;;;;;4.88;74.02;98536.27;130452;1268;107399;-80
2022/02/18 00:25:42;;;;;;;6.80;1.30;;;;;;;4.89;74.01;98543.98;130416;1268;105513;-81
2022/02/18 00:28:49;;;;;;;6.60;1.60;;;;;;;4.87;73.83;98547.09;130447;1268;108484;-80
2022/02/18 00:31:55;;;;;;;9.20;1.70;;;;;;;4.86;73.66;98549.17;130408;1267;107553;-77
2022/02/18 00:35:04;;;;;;;5.00;1.40;;;;;;;4.82;73.82;98552.92;130578;1268;108966;-78
2022/02/18 00:38:09;;;;;;;5.20;1.40;;;;;;;4.80;73.66;98558.39;130381;1268;107627;-78
2022/02/18 00:41:15;;;;;;;4.30;1.40;;;;;;;4.79;73.51;98574.70;130244;1268;108813;-81
2022/02/18 00:44:24;;;;;;;6.40;1.60;;;;;;;4.77;73.45;98581.14;130599;1268;108802;-82
2022/02/18 00:47:29;;;;;;;5.10;1.40;;;;;;;4.76;73.13;98586.46;130494;1267;108068;-81
2022/02/18 00:50:35;;;;;;;5.60;1.30;;;;;;;4.70;73.72;98598.29;130508;1266;108733;-81
2022/02/18 00:53:42;;;;;;;5.90;1.50;;;;;;;4.71;73.95;98598.42;130531;1266;105517;-82
2022/02/18 00:56:50;;;;;;;5.20;1.60;;;;;;;4.70;74.04;98608.05;130547;1268;108775;-78
2022/02/18 00:59:56;;;;;;;4.70;1.10;;;;;;;4.66;74.23;98605.45;130344;1268;108686;-78
2022/02/18 01:03:01;;;;;;;3.60;1.30;;;;;;;4.66;74.20;98610.17;130532;1268;108856;-76
2022/02/18 01:06:08;;;;;;;7.20;2.00;;;;;;;4.67;74.41;98612.39;130408;1266;107696;-79
2022/02/18 01:09:14;;;;;;;4.00;1.20;;;;;;;4.71;74.68;98615.72;130266;1269;106836;-77
2022/02/18 01:12:19;;;;;;;6.10;1.70;;;;;;;4.75;74.64;98615.45;130424;1267;107709;-77
2022/02/18 01:15:25;;;;;;;6.00;1.40;;;;;;;4.76;74.67;98613.99;130531;1268;108858;-77
2022/02/18 01:18:31;;;;;;;4.60;1.40;;;;;;;4.75;74.58;98614.42;130495;1268;108837;-75
2022/02/18 01:21:36;;;;;;;6.40;1.50;;;;;;;4.74;74.51;98618.28;130483;1268;107660;-77
2022/02/18 01:24:45;;;;;;;4.40;1.30;;;;;;;4.75;74.46;98623.11;130506;1268;108941;-78
2022/02/18 01:27:55;;;;;;;5.50;1.40;;;;;;;4.79;74.37;98622.52;130494;1268;108743;-78
2022/02/18 01:31:01;;;;;;;5.80;1.70;;;;;;;4.84;74.06;98625.16;130459;1268;108840;-79
2022/02/18 01:34:06;;;;;;;5.10;1.50;;;;;;;4.88;73.99;98625.79;130338;1268;107802;-77
2022/02/18 01:37:12;;;;;;;4.90;1.70;;;;;;;4.90;73.95;98622.57;130332;1266;108596;-78
2022/02/18 01:40:17;;;;;;;6.30;1.70;;;;;;;4.96;73.90;98626.27;130383;1268;107670;-79
2022/02/18 01:43:23;;;;;;;4.10;1.50;;;;;;;4.96;73.68;98628.08;130494;1266;108584;-78
2022/02/18 01:46:29;;;;;;;7.00;1.80;;;;;;;4.95;73.57;98631.81;130468;1268;108825;-78
2022/02/18 01:49:35;;;;;;;5.90;1.70;;;;;;;4.92;73.67;98640.15;130473;1268;108789;-77
2022/02/18 01:52:44;;;;;;;5.20;1.20;;;;;;;4.92;73.96;98643.33;130468;1268;108881;-77
2022/02/18 01:55:50;;;;;;;3.50;1.40;;;;;;;4.94;74.18;98648.09;130430;1268;106710;-77
2022/02/18 01:58:55;;;;;;;8.20;1.70;;;;;;;4.98;74.12;98645.23;130318;1268;109048;-77
2022/02/18 02:02:01;;;;;;;7.20;1.60;;;;;;;5.00;73.65;98650.23;130470;1268;108971;-76
2022/02/18 02:05:09;;;;;;;6.30;1.70;;;;;;;4.99;73.63;98664.27;130518;1268;108828;-76
2022/02/18 02:08:15;;;;;;;5.00;1.50;;;;;;;4.99;73.07;98665.56;130370;1268;108748;-76
2022/02/18 02:11:25;;;;;;;7.60;2.00;;;;;;;4.92;73.23;98677.02;130475;1268;109146;-78
2022/02/18 02:14:30;;;;;;;5.00;1.50;;;;;;;4.88;73.43;98672.14;130367;1268;107794;-77
2022/02/18 02:17:37;;;;;;;5.90;1.40;;;;;;;4.83;73.06;98677.04;130266;1268;108828;-78
2022/02/18 02:20:43;;;;;;;7.60;1.60;;;;;;;4.82;73.09;98678.73;130535;1268;107712;-79
2022/02/18 02:23:49;;;;;;;6.80;1.60;;;;;;;4.83;72.52;98684.92;130376;1267;109143;-78
2022/02/18 02:27:02;;;;;;;6.90;1.70;;;;;;;4.86;72.26;98683.27;130362;1268;108780;-78
2022/02/18 02:30:11;;;;;;;6.90;1.40;;;;;;;4.88;71.83;98696.66;130353;1266;108774;-77
2022/02/18 02:33:17;;;;;;;9.40;2.40;;;;;;;4.86;71.47;98696.31;130310;1268;109112;-78
2022/02/18 02:36:26;;;;;;;8.50;1.40;;;;;;;4.87;71.74;98705.20;130418;1268;108795;-76
2022/02/18 02:39:33;;;;;;;7.90;1.70;;;;;;;4.83;71.01;98702.02;130481;1268;108221;-79
2022/02/18 02:42:39;;;;;;;5.80;1.40;;;;;;;4.79;71.19;98697.72;130437;1268;108847;-77
2022/02/18 02:45:48;;;;;;;7.10;1.40;;;;;;;4.77;71.28;98693.70;130475;1268;108818;-78
2022/02/18 02:48:53;;;;;;;5.40;1.60;;;;;;;4.79;71.61;98703.83;130923;1268;108809;-78
2022/02/18 02:52:09;;;;;;;4.00;1.50;;;;;;;4.82;70.60;98705.20;131113;1268;108694;-80
2022/02/18 02:55:16;;;;;;;10.00;2.10;;;;;;;4.87;71.01;98704.67;130780;1268;108764;-79
2022/02/18 02:58:21;;;;;;;6.80;1.60;;;;;;;4.92;70.68;98711.36;130436;1268;107749;-79
2022/02/18 03:01:27;;;;;;;7.80;1.50;;;;;;;4.91;69.92;98717.31;130440;1268;108775;-78
2022/02/18 03:04:33;;;;;;;11.00;1.90;;;;;;;4.90;70.17;98725.11;130350;1268;108730;-79
2022/02/18 03:07:39;;;;;;;6.40;1.20;;;;;;;4.88;70.48;98726.33;130400;1268;108853;-79
2022/02/18 03:14:12;;;;;;;9.60;1.50;;;;;;;4.86;69.72;98739.77;130411;1268;108819;-78
2022/02/18 03:17:25;;;;;;;5.90;1.40;;;;;;;4.84;70.17;98748.45;130391;1268;108798;-78
2022/02/18 03:20:33;;;;;;;6.80;1.70;;;;;;;4.78;68.95;98764.92;130438;1268;108876;-79
2022/02/18 03:23:40;;;;;;;6.10;1.30;;;;;;;4.70;69.57;98755.48;130456;1268;107755;-77
2022/02/18 03:26:45;;;;;;;7.70;2.10;;;;;;;4.69;70.36;98761.41;130505;1266;108814;-78
2022/02/18 03:29:51;;;;;;;5.90;1.40;;;;;;;4.69;69.88;98768.64;130516;1268;108731;-78
2022/02/18 03:33:03;;;;;;;7.40;1.20;;;;;;;4.68;70.17;98778.38;130493;1268;108977;-77
2022/02/18 03:36:09;;;;;;;7.10;1.60;;;;;;;4.69;70.09;98781.63;130585;1268;108721;-77
2022/02/18 03:39:15;;;;;;;7.70;1.50;;;;;;;4.70;69.78;98799.50;130169;1268;107023;-77
2022/02/18 03:42:21;;;;;;;7.90;1.50;;;;;;;4.69;69.94;98795.36;130248;1268;108850;-81
2022/02/18 03:45:28;;;;;;;6.50;1.40;;;;;;;4.67;69.35;98800.17;130101;1268;109032;-81
2022/02/18 03:48:34;;;;;;;7.60;1.30;;;;;;;4.64;69.63;98803.11;130278;1268;108789;-80
2022/02/18 03:51:40;;;;;;;6.70;1.50;;;;;;;4.62;69.74;98810.70;130275;1268;107594;-81
2022/02/18 03:54:45;;;;;;;6.90;1.50;;;;;;;4.60;69.54;98812.63;130073;1268;109071;-82
2022/02/18 03:57:51;;;;;;;6.70;1.20;;;;;;;4.59;69.64;98816.75;130199;1268;107698;-78
2022/02/18 04:00:57;;;;;;;6.10;1.30;;;;;;;4.61;69.84;98819.40;130419;1268;107638;-83
2022/02/18 04:04:03;;;;;;;4.50;1.20;;;;;;;4.65;69.31;98832.58;130564;1268;107507;-82
2022/02/18 04:07:12;;;;;;;6.80;1.60;;;;;;;4.70;68.90;98836.17;130289;1268;108702;-83
2022/02/18 04:10:23;;;;;;;6.20;1.90;;;;;;;4.77;68.83;98836.23;130202;1268;108976;-83
2022/02/18 04:13:33;;;;;;;10.90;1.60;;;;;;;4.81;69.04;98838.97;130220;1268;108731;-83
2022/02/18 04:16:38;;;;;;;8.10;1.40;;;;;;;4.82;68.64;98848.95;131379;1271;108767;-83
2022/02/18 04:19:48;;;;;;;8.30;1.50;;;;;;;4.81;68.61;98847.80;131169;1268;108972;-83
2022/02/18 04:22:58;;;;;;;7.60;1.70;;;;;;;4.79;67.76;98855.77;130327;1268;107673;-82
2022/02/18 04:26:10;;;;;;;7.40;1.70;;;;;;;4.76;68.38;98866.11;131230;1268;108947;-82
2022/02/18 04:29:15;;;;;;;7.50;1.50;;;;;;;4.74;68.25;98864.12;131865;1268;107567;-83
2022/02/18 04:32:21;;;;;;;7.60;1.60;;;;;;;4.75;68.72;98862.70;131239;1268;107708;-82
2022/02/18 04:35:27;;;;;;;6.10;1.40;;;;;;;4.75;68.10;98869.53;130837;1268;108752;-82
2022/02/18 04:38:33;;;;;;;6.20;1.40;;;;;;;4.73;68.29;98877.29;130520;1268;108576;-82
2022/02/18 04:41:39;;;;;;;9.20;1.80;;;;;;;4.71;68.43;98877.23;130397;1268;108134;-84
2022/02/18 04:44:44;;;;;;;7.50;1.80;;;;;;;4.70;68.34;98884.01;131230;1268;108779;-80
2022/02/18 04:47:49;;;;;;;8.70;3.90;;;;;;;4.67;67.81;98893.50;131176;1268;108899;-82
2022/02/18 04:50:55;;;;;;;19.20;10.40;;;;;;;4.65;68.26;98901.95;130695;1268;108760;-81
2022/02/18 04:54:00;;;;;;;6.70;1.70;;;;;;;4.66;68.16;98899.08;130950;1268;109039;-81
2022/02/18 04:57:06;;;;;;;6.70;1.50;;;;;;;4.70;68.25;98908.40;131745;1268;108634;-81
2022/02/18 05:00:13;;;;;;;6.90;1.60;;;;;;;4.74;67.75;98913.83;131533;1268;108735;-81
2022/02/18 05:03:20;;;;;;;7.40;2.20;;;;;;;4.75;67.58;98911.09;131489;1268;108921;-80
2022/02/18 05:06:25;;;;;;;10.40;2.80;;;;;;;4.75;67.48;98918.10;131960;1268;108781;-82
2022/02/18 05:09:30;;;;;;;7.20;1.90;;;;;;;4.77;67.92;98925.85;131969;1268;108836;-81
2022/02/18 05:12:36;;;;;;;6.20;3.10;;;;;;;4.76;67.69;98924.58;131949;1267;108643;-81
2022/02/18 05:15:42;;;;;;;7.90;2.20;;;;;;;4.73;67.96;98936.31;132201;1268;108703;-82
2022/02/18 05:18:47;;;;;;;6.10;1.70;;;;;;;4.64;67.25;98945.19;131365;1268;108675;-80
2022/02/18 05:21:53;;;;;;;9.80;1.60;;;;;;;4.59;67.41;98945.89;130257;1268;109149;-82
2022/02/18 05:24:58;;;;;;;9.30;1.80;;;;;;;4.52;67.88;98937.77;130316;1268;108822;-82
2022/02/18 05:28:05;;;;;;;9.40;1.60;;;;;;;4.43;67.99;98939.65;130287;1268;108744;-82
2022/02/18 05:31:10;;;;;;;6.10;1.70;;;;;;;4.38;68.47;98939.61;130500;1268;109241;-82
2022/02/18 05:34:16;;;;;;;24.20;6.10;;;;;;;4.36;68.48;98945.27;130665;1266;107697;-83
2022/02/18 05:37:21;;;;;;;40.80;14.60;;;;;;;4.38;68.32;98945.27;130414;1268;107704;-82
2022/02/18 05:40:27;;;;;;;21.90;8.60;;;;;;;4.42;68.54;98940.10;130554;1267;106668;-82
2022/02/18 05:43:32;;;;;;;42.60;16.90;;;;;;;4.48;68.12;98942.19;130848;1268;108970;-82
2022/02/18 05:46:38;;;;;;;30.60;10.80;;;;;;;4.51;67.93;98944.54;131780;1268;108965;-81
2022/02/18 05:49:44;;;;;;;46.00;16.90;;;;;;;4.53;67.73;98951.16;132294;1266;108728;-83
2022/02/18 05:52:49;;;;;;;25.50;7.50;;;;;;;4.52;67.57;98968.02;131835;1267;108916;-83
2022/02/18 05:55:55;;;;;;;11.10;3.00;;;;;;;4.51;67.58;98972.38;131179;1266;108864;-80
2022/02/18 05:59:02;;;;;;;40.60;15.90;;;;;;;4.49;67.64;98976.22;130609;1268;107430;-79
2022/02/18 06:02:07;;;;;;;18.90;5.00;;;;;;;4.52;67.56;98984.21;130504;1267;107735;-78
2022/02/18 06:05:13;;;;;;;9.30;3.10;;;;;;;4.52;67.23;98987.63;130525;1268;108851;-77
2022/02/18 06:08:19;;;;;;;21.00;7.20;;;;;;;4.49;66.99;99003.55;130349;1268;107306;-80
2022/02/18 06:11:24;;;;;;;30.00;11.60;;;;;;;4.46;66.74;99002.09;130480;1268;108843;-76
2022/02/18 06:14:29;;;;;;;44.40;19.50;;;;;;;4.47;67.31;99006.03;130366;1268;108649;-77
2022/02/18 06:17:37;;;;;;;11.50;5.10;;;;;;;4.51;67.40;99019.95;130354;1268;107616;-77
2022/02/18 06:20:42;;;;;;;22.90;10.70;;;;;;;4.46;67.08;99017.60;130368;1268;108700;-76
2022/02/18 06:23:48;;;;;;;12.00;3.30;;;;;;;4.42;67.56;99012.50;130415;1267;108579;-77
2022/02/18 06:26:53;;;;;;;11.80;3.30;;;;;;;4.40;66.85;99023.19;130412;1267;108726;-76
2022/02/18 06:29:59;;;;;;;12.60;3.50;;;;;;;4.38;66.94;99025.94;130392;1268;108639;-76
2022/02/18 06:33:08;;;;;;;37.10;16.90;;;;;;;4.37;67.26;99024.02;130390;1268;108941;-76
2022/02/18 06:36:14;;;;;;;17.60;6.60;;;;;;;4.41;67.53;99026.88;130392;1268;108717;-76
2022/02/18 06:39:19;;;;;;;43.70;23.80;;;;;;;4.45;67.18;99041.77;130383;1267;108872;-77
2022/02/18 06:42:25;;;;;;;12.70;6.40;;;;;;;4.50;67.55;99048.50;130282;1268;108757;-76
2022/02/18 06:45:30;;;;;;;16.60;8.30;;;;;;;4.58;67.49;99057.83;130352;1268;108711;-77
2022/02/18 06:48:36;;;;;;;14.20;6.10;;;;;;;4.62;67.41;99055.64;130390;1267;107877;-78
2022/02/18 06:51:41;;;;;;;25.90;11.60;;;;;;;4.68;67.65;99061.27;130432;1268;108996;-76
2022/02/18 06:54:46;;;;;;;11.80;3.60;;;;;;;4.71;66.90;99073.33;130386;1268;107748;-76
2022/02/18 06:57:56;;;;;;;40.70;18.30;;;;;;;4.66;67.10;99080.71;130540;1268;109001;-76
2022/02/18 07:01:02;;;;;;;19.30;9.70;;;;;;;4.64;67.31;99088.39;130395;1268;108823;-77
2022/02/18 07:04:08;;;;;;;21.40;11.30;;;;;;;4.66;67.09;99092.61;130430;1268;108914;-76
2022/02/18 07:07:14;;;;;;;18.00;8.80;;;;;;;4.70;67.36;99103.39;130478;1268;108680;-76
2022/02/18 07:10:19;;;;;;;13.40;6.40;;;;;;;4.70;66.95;99106.52;130527;1267;108857;-76
2022/02/18 07:13:24;;;;;;;10.70;3.70;;;;;;;4.71;67.34;99110.33;130249;1268;109025;-76
2022/02/18 07:16:30;;;;;;;22.80;9.70;;;;;;;4.72;67.30;99109.21;130374;1267;108880;-76
2022/02/18 07:19:36;;;;;;;25.30;11.90;;;;;;;4.71;66.92;99113.65;130449;1268;107669;-76
2022/02/18 07:22:44;;;;;;;13.30;4.80;;;;;;;4.71;67.09;99119.34;130407;1268;108909;-77
2022/02/18 07:25:49;;;;;;;18.10;8.70;;;;;;;4.73;67.26;99120.52;130396;1268;107604;-77
2022/02/18 07:28:54;;;;;;;14.70;5.30;;;;;;;4.76;67.12;99113.92;130267;1268;108748;-77
2022/02/18 07:32:01;;;;;;;11.10;3.80;;;;;;;4.80;66.97;99125.17;130324;1268;108690;-76
2022/02/18 07:35:08;;;;;;;13.10;6.20;;;;;;;4.78;67.17;99125.91;130282;1268;108950;-76
2022/02/18 07:38:14;;;;;;;15.00;7.00;;;;;;;4.81;67.23;99131.23;130423;1268;108498;-77
2022/02/18 07:41:19;;;;;;;20.20;8.90;;;;;;;4.85;67.27;99129.44;130321;1268;108697;-76
2022/02/18 07:44:25;;;;;;;10.70;4.80;;;;;;;4.87;67.17;99131.85;130334;1266;108971;-76
2022/02/18 07:47:30;;;;;;;12.00;3.60;;;;;;;4.88;67.26;99142.37;130471;1267;108706;-74
2022/02/18 07:50:36;;;;;;;8.50;2.50;;;;;;;4.84;66.80;99150.15;130255;1267;108744;-76
2022/02/18 07:53:42;;;;;;;21.90;10.60;;;;;;;4.79;67.08;99148.52;130391;1268;108766;-75
2022/02/18 07:56:47;;;;;;;219.50;92.70;;;;;;;4.76;66.81;99149.73;130375;1268;109588;-78
2022/02/18 07:59:52;;;;;;;169.50;68.60;;;;;;;4.82;67.14;99152.85;130322;1267;108783;-77
2022/02/18 08:02:58;;;;;;;72.60;28.40;;;;;;;4.94;67.18;99143.23;130401;1268;108881;-77
2022/02/18 08:06:03;;;;;;;17.70;6.40;;;;;;;5.06;66.81;99144.38;130364;1267;108763;-77
2022/02/18 08:09:09;;;;;;;168.30;67.80;;;;;;;5.10;66.52;99151.75;130335;1267;108706;-76
2022/02/18 08:12:14;;;;;;;80.80;30.60;;;;;;;5.21;66.95;99151.30;130340;1268;108849;-76
2022/02/18 08:15:20;;;;;;;219.40;79.70;;;;;;;5.31;66.70;99152.46;130394;1267;108744;-76
2022/02/18 08:18:25;;;;;;;40.00;13.40;;;;;;;5.41;66.72;99149.34;130411;1268;106808;-77
2022/02/18 08:21:32;;;;;;;215.90;81.00;;;;;;;5.43;65.88;99148.07;130422;1267;108698;-75
2022/02/18 08:24:37;;;;;;;142.90;57.40;;;;;;;5.49;66.11;99155.29;130398;1268;108741;-75
2022/02/18 08:27:44;;;;;;;21.90;7.80;;;;;;;5.61;66.31;99167.08;130500;1267;109435;-75
2022/02/18 08:30:49;;;;;;;66.00;37.10;;;;;;;5.66;66.17;99176.80;130527;1268;108855;-74
2022/02/18 08:33:55;;;;;;;18.10;7.90;;;;;;;5.71;65.49;99175.41;130294;1267;108027;-76
2022/02/18 08:37:02;;;;;;;21.90;12.80;;;;;;;5.68;65.03;99186.42;130465;1268;108578;-77
2022/02/18 08:40:10;;;;;;;11.90;3.50;;;;;;;5.71;65.62;99195.36;130488;1268;107735;-75
2022/02/18 08:43:15;;;;;;;14.30;5.80;;;;;;;5.69;65.21;99193.23;130347;1267;108774;-76
2022/02/18 08:46:20;;;;;;;16.10;6.20;;;;;;;5.69;65.06;99199.41;130391;1266;108831;-76
2022/02/18 08:49:26;;;;;;;11.40;4.00;;;;;;;5.70;65.46;99216.26;130611;1267;108566;-77
2022/02/18 08:52:31;;;;;;;10.00;3.60;;;;;;;5.70;64.94;99217.52;130645;1268;108709;-75
2022/02/18 08:55:37;;;;;;;9.90;3.20;;;;;;;5.66;65.15;99211.55;130407;1268;108775;-77
2022/02/18 08:58:42;;;;;;;7.90;2.90;;;;;;;5.59;65.14;99212.21;130367;1267;108554;-77
2022/02/18 09:01:48;;;;;;;8.80;2.40;;;;;;;5.52;64.89;99216.45;130394;1268;108072;-76
2022/02/18 09:04:54;;;;;;;7.60;3.60;;;;;;;5.44;65.27;99220.00;130376;1266;108617;-76
2022/02/18 09:08:00;;;;;;;11.70;2.90;;;;;;;5.49;65.33;99224.79;130379;1268;107714;-77
2022/02/18 09:11:06;;;;;;;8.80;2.50;;;;;;;5.47;65.03;99221.79;130341;1268;107718;-78
2022/02/18 09:14:11;;;;;;;9.90;2.90;;;;;;;5.46;65.33;99225.45;130323;1268;109011;-76
2022/02/18 09:17:22;;;;;;;10.20;4.20;;;;;;;5.47;65.52;99229.01;130342;1268;108676;-78
2022/02/18 09:20:28;;;;;;;7.60;2.80;;;;;;;5.54;65.50;99231.11;130419;1268;108661;-76
2022/02/18 09:23:33;;;;;;;9.60;2.70;;;;;;;5.58;64.99;99232.45;130417;1266;108946;-80
2022/02/18 09:26:39;;;;;;;12.20;4.80;;;;;;;5.53;65.32;99241.23;130343;1268;109203;-76
2022/02/18 09:29:44;;;;;;;11.00;4.50;;;;;;;5.59;65.45;99239.70;130349;1268;108873;-76
2022/02/18 09:32:50;;;;;;;9.40;3.50;;;;;;;5.67;65.30;99243.23;130445;1267;108953;-75
2022/02/18 09:35:56;;;;;;;10.30;3.40;;;;;;;5.67;64.58;99247.48;130396;1267;108135;-77
2022/02/18 09:39:02;;;;;;;9.00;3.50;;;;;;;5.71;64.44;99256.23;130435;1267;108752;-76
2022/02/18 09:42:08;;;;;;;11.00;3.60;;;;;;;5.79;64.36;99264.86;130395;1267;107531;-75
2022/02/18 09:45:15;;;;;;;10.10;4.00;;;;;;;5.88;64.98;99262.04;130418;1268;108733;-76
2022/02/18 09:48:22;;;;;;;14.40;4.50;;;;;;;6.03;64.38;99254.63;130427;1267;108703;-76
2022/02/18 09:51:28;;;;;;;30.40;10.90;;;;;;;6.16;63.98;99256.52;130367;1268;108899;-77
2022/02/18 09:54:34;;;;;;;54.20;23.70;;;;;;;6.28;63.84;99246.86;130349;1266;108826;-76
2022/02/18 09:57:42;;;;;;;58.10;24.90;;;;;;;6.46;63.00;99249.05;130371;1268;108478;-76
2022/02/18 10:00:47;;;;;;;24.60;8.60;;;;;;;6.56;63.07;99250.38;130429;1267;108826;-76
2022/02/18 10:03:53;;;;;;;40.40;19.50;;;;;;;6.65;62.27;99257.32;130412;1268;107101;-76
2022/02/18 10:07:01;;;;;;;52.80;25.60;;;;;;;6.68;63.02;99248.95;130338;1268;107656;-76
2022/02/18 10:10:17;;;;;;;23.00;10.60;;;;;;;6.76;63.08;99262.31;130353;1266;108822;-76
2022/02/18 10:13:31;;;;;;;35.20;18.10;;;;;;;6.89;62.89;99264.60;130345;1268;108791;-75
2022/02/18 10:16:37;;;;;;;14.50;7.00;;;;;;;6.92;61.95;99268.14;130423;1268;108685;-77
2022/02/18 10:19:51;;;;;;;22.30;11.60;;;;;;;6.88;61.39;99269.91;130411;1266;106203;-76
2022/02/18 10:23:02;;;;;;;14.70;5.70;;;;;;;6.87;60.86;99271.12;130292;1268;108980;-76
2022/02/18 10:26:07;;;;;;;10.10;3.70;;;;;;;6.84;61.00;99287.45;130287;1266;219848;-76
2022/02/18 10:29:20;;;;;;;7.60;2.60;;;;;;;6.81;59.79;99286.05;130291;1268;108992;-76
2022/02/18 10:32:24;;;;;;;;;;;;;;;6.79;60.25;99290.61;130263;1268;108771;-77
2022/02/18 10:35:39;;;;;;;9.70;3.90;;;;;;;6.75;59.96;99292.46;130500;1267;108832;-77
2022/02/18 10:38:46;;;;;;;5.90;2.30;;;;;;;6.79;61.22;99289.45;130477;1266;108834;-78
2022/02/18 10:41:57;;;;;;;8.80;2.50;;;;;;;6.82;61.13;99291.44;130347;1268;108927;-75
2022/02/18 10:45:12;;;;;;;12.70;6.30;;;;;;;6.82;60.95;99290.37;130456;1267;108624;-76
2022/02/18 10:48:19;;;;;;;9.60;3.70;;;;;;;6.90;60.77;99295.42;130417;1266;108764;-77
2022/02/18 10:51:30;;;;;;;9.70;2.90;;;;;;;6.95;60.24;99286.97;130373;1267;108776;-78
2022/02/18 10:54:36;;;;;;;11.40;4.50;;;;;;;6.94;60.68;99275.94;130335;1267;108041;-78
2022/02/18 10:57:41;;;;;;;10.40;2.90;;;;;;;6.91;59.08;99279.02;130407;1266;108647;-77
2022/02/18 11:00:47;;;;;;;9.20;2.60;;;;;;;6.68;59.25;99277.39;130392;1268;108928;-77
2022/02/18 11:03:58;;;;;;;8.70;2.70;;;;;;;6.48;59.52;99269.86;130349;1267;108202;-76
2022/02/18 11:07:15;;;;;;;12.20;6.60;;;;;;;6.35;59.72;99265.82;130317;1268;108951;-77
2022/02/18 11:10:33;;;;;;;51.60;23.50;;;;;;;6.30;60.20;99259.96;130373;1268;108755;-76
2022/02/18 11:13:40;;;;;;;28.00;11.30;;;;;;;6.35;60.37;99255.05;130410;1267;108845;-77
2022/02/18 11:16:52;;;;;;;16.80;6.60;;;;;;;6.42;58.10;99259.19;130423;1266;108648;-77
2022/02/18 11:19:58;;;;;;;11.20;5.10;;;;;;;6.49;60.23;99255.98;130357;1267;108991;-77
2022/02/18 11:23:07;;;;;;;9.20;3.30;;;;;;;6.79;60.66;99256.17;130384;1268;108693;-77
2022/02/18 11:26:17;;;;;;;14.90;5.90;;;;;;;7.06;59.21;99254.55;130337;1268;108861;-75
2022/02/18 11:29:22;;;;;;;12.80;5.30;;;;;;;7.30;58.49;99250.73;130387;1267;107501;-76
2022/02/18 11:32:31;;;;;;;11.70;4.10;;;;;;;7.44;56.67;99247.13;130386;1268;108860;-76
2022/02/18 11:35:58;;;;;;;8.90;3.10;;;;;;;7.46;56.97;99235.36;130388;1268;108973;-77
2022/02/18 11:39:21;;;;;;;81.10;33.20;;;;;;;7.58;58.02;99229.41;130413;1268;108768;-76
2022/02/18 11:42:38;;;;;;;149.40;64.00;;;;;;;7.75;57.34;99229.64;130406;1267;107828;-76
2022/02/18 11:45:45;;;;;;;83.90;35.10;;;;;;;7.73;56.82;99229.52;130477;1267;108716;-77
2022/02/18 11:48:51;;;;;;;107.20;39.90;;;;;;;7.67;57.63;99222.25;130295;1268;108898;-76
2022/02/18 11:52:10;;;;;;;9.30;4.10;;;;;;;7.60;58.18;99217.55;130348;1266;108883;-77
2022/02/18 11:55:30;;;;;;;42.40;14.30;;;;;;;7.42;56.86;99215.70;130289;1267;108777;-75
2022/02/18 11:58:54;;;;;;;17.50;6.40;;;;;;;7.38;57.06;99216.05;130392;1268;107709;-76
2022/02/18 12:02:09;;;;;;;36.20;15.50;;;;;;;7.33;55.41;99210.01;130507;1268;108805;-76
2022/02/18 12:05:17;;;;;;;87.80;35.40;;;;;;;7.33;56.09;99207.95;130423;1266;108847;-77
2022/02/18 12:08:30;;;;;;;70.80;29.70;;;;;;;7.37;56.53;99207.65;130354;1267;108645;-76
2022/02/18 12:11:44;;;;;;;128.60;57.90;;;;;;;7.42;56.50;99214.90;130291;1267;108792;-77
2022/02/18 12:14:54;;;;;;;187.00;82.40;;;;;;;7.46;56.33;99212.80;130419;1267;108692;-76
2022/02/18 12:18:03;;;;;;;108.10;49.60;;;;;;;7.46;56.42;99198.46;130384;1268;108929;-76
2022/02/18 12:21:11;;;;;;;58.90;31.90;;;;;;;7.45;56.62;99196.90;130424;1268;108961;-75
2022/02/18 12:24:47;;;;;;;31.30;16.80;;;;;;;7.46;56.66;99195.05;130357;1267;107828;-77
2022/02/18 12:27:55;;;;;;;21.70;12.40;;;;;;;7.50;57.16;99195.04;130384;1268;108869;-77
2022/02/18 12:31:06;;;;;;;9.70;4.20;;;;;;;7.53;57.39;99192.63;130351;1267;106746;-77
2022/02/18 12:34:27;;;;;;;13.90;7.50;;;;;;;7.54;56.74;99189.81;130361;1268;108870;-78
2022/02/18 12:37:33;;;;;;;12.30;7.70;;;;;;;7.56;56.77;99187.98;130375;1268;108745;-77
2022/02/18 12:40:42;;;;;;;16.50;9.10;;;;;;;7.63;57.52;99182.01;130374;1268;108892;-76
2022/02/18 12:43:48;;;;;;;16.70;9.50;;;;;;;7.70;56.35;99181.64;130395;1268;108651;-76
2022/02/18 12:46:54;;;;;;;22.80;11.70;;;;;;;7.72;55.74;99174.51;130382;1268;108952;-76
2022/02/18 12:50:03;;;;;;;18.80;10.90;;;;;;;7.70;56.12;99167.80;130360;1268;108871;-76
2022/02/18 12:53:09;;;;;;;18.40;11.10;;;;;;;7.68;55.08;99167.46;130377;1266;108646;-77
2022/02/18 12:56:22;;;;;;;25.80;16.50;;;;;;;7.68;55.76;99162.19;130371;1268;107674;-76
2022/02/18 12:59:27;;;;;;;111.50;56.60;;;;;;;7.69;55.90;99164.54;130428;1268;108696;-77
2022/02/18 13:02:44;;;;;;;45.00;32.70;;;;;;;7.73;55.74;99157.95;130333;1267;108753;-76
2022/02/18 13:05:49;;;;;;;11.70;4.90;;;;;;;7.74;54.30;99162.23;130439;1265;108689;-73
2022/02/18 13:08:55;;;;;;;6.70;3.00;;;;;;;7.74;55.89;99162.30;130487;1266;109076;-75
2022/02/18 13:12:02;;;;;;;10.50;2.80;;;;;;;7.76;56.11;99160.05;130467;1268;108753;-74
2022/02/18 13:15:12;;;;;;;8.20;4.80;;;;;;;7.78;54.93;99155.60;130346;1268;108694;-77
2022/02/18 13:18:18;;;;;;;9.00;2.80;;;;;;;7.77;55.37;99156.39;130382;1266;107736;-77
2022/02/18 13:21:24;;;;;;;5.70;2.50;;;;;;;7.79;55.73;99153.58;130378;1268;108762;-74
2022/02/18 13:24:30;;;;;;;4.60;2.00;;;;;;;7.81;55.29;99152.52;130359;1268;108985;-75
2022/02/18 13:27:45;;;;;;;5.90;2.30;;;;;;;7.81;55.17;99151.56;130462;1268;108374;-76
2022/02/18 13:30:52;;;;;;;7.20;2.50;;;;;;;7.84;55.45;99142.28;130500;1267;108710;-77
2022/02/18 13:33:58;;;;;;;4.90;2.80;;;;;;;7.85;55.29;99139.09;130395;1267;108931;-76
2022/02/18 13:37:04;;;;;;;8.50;2.30;;;;;;;7.88;54.73;99140.59;130330;1267;107946;-77
2022/02/18 13:40:15;;;;;;;6.00;2.30;;;;;;;7.90;54.53;99130.33;130350;1268;108814;-76
2022/02/18 13:43:20;;;;;;;6.10;2.60;;;;;;;7.90;54.30;99125.33;130418;1268;108970;-76
2022/02/18 13:46:30;;;;;;;65.20;29.70;;;;;;;7.89;55.04;99120.84;130377;1267;109060;-77
2022/02/18 13:49:35;;;;;;;175.60;78.20;;;;;;;7.92;55.16;99118.81;130430;1268;108851;-76
2022/02/18 13:52:42;;;;;;;179.10;75.70;;;;;;;7.95;54.98;99115.80;130313;1268;109133;-76
2022/02/18 13:55:49;;;;;;;109.70;50.10;;;;;;;7.98;54.94;99105.02;130472;1267;108774;-75
2022/02/18 13:59:14;;;;;;;61.10;28.80;;;;;;;7.98;54.64;99102.65;130345;1267;109305;-74
2022/02/18 14:02:22;;;;;;;76.60;34.50;;;;;;;7.97;54.31;99097.48;130338;1267;108811;-75
2022/02/18 14:05:28;;;;;;;93.50;43.80;;;;;;;7.94;53.63;99089.73;130388;1266;108747;-76
2022/02/18 14:08:33;;;;;;;79.10;40.10;;;;;;;7.90;54.29;99088.86;130342;1267;108657;-78
2022/02/18 14:11:49;;;;;;;78.70;39.10;;;;;;;7.89;53.81;99077.17;130329;1267;108623;-76
2022/02/18 14:15:02;;;;;;;34.90;17.60;;;;;;;7.88;53.96;99069.40;130360;1267;108929;-77
2022/02/18 14:18:10;;;;;;;12.40;6.50;;;;;;;7.91;54.27;99064.86;130460;1267;108771;-75
2022/02/18 14:21:22;;;;;;;10.10;4.80;;;;;;;7.94;54.14;99058.35;130484;1268;107621;-75
2022/02/18 14:24:35;;;;;;;15.10;9.20;;;;;;;7.97;54.28;99049.16;130496;1268;107714;-76
2022/02/18 14:27:40;;;;;;;9.70;4.70;;;;;;;8.00;53.70;99046.90;130492;1266;108851;-75